createdAt,value
2022-08-30T00:01:32.719Z,73.76
2022-08-30T00:04:07.270Z,73.65
2022-08-30T00:06:39.583Z,73.84
2022-08-30T00:09:12.426Z,74.05
2022-08-30T00:11:45.515Z,74.39
2022-08-30T00:14:18.021Z,74.45
2022-08-30T00:16:52.160Z,74.61
2022-08-30T00:19:25.242Z,74.98
2022-08-30T00:21:58.035Z,75.23
2022-08-30T00:24:30.914Z,75.46
2022-08-30T00:27:04.575Z,75.59
2022-08-30T00:29:38.164Z,75.59
2022-08-30T00:32:12.390Z,75.58
2022-08-30T00:34:45.062Z,75.46
2022-08-30T00:37:17.641Z,75.56
2022-08-30T00:39:50.929Z,75.91
2022-08-30T00:42:23.500Z,76.17
2022-08-30T00:44:56.286Z,76.35
2022-08-30T00:47:29.232Z,76.66
2022-08-30T00:50:01.758Z,76.97
2022-08-30T00:52:35.690Z,77.20
2022-08-30T00:55:09.066Z,77.41
2022-08-30T00:57:44.542Z,77.80
2022-08-30T01:00:19.155Z,78.03
2022-08-30T01:05:25.419Z,78.95
2022-08-30T01:07:58.030Z,79.08
2022-08-30T01:10:31.147Z,79.54
2022-08-30T01:13:03.587Z,79.78
2022-08-30T01:15:36.145Z,79.96
2022-08-30T01:18:10.475Z,80.33
2022-08-30T01:21:13.237Z,80.39
2022-08-30T01:23:47.490Z,80.62
2022-08-30T01:26:21.980Z,80.67
2022-08-30T01:28:58.066Z,80.85
2022-08-30T01:31:31.505Z,81.26
2022-08-30T01:34:07.498Z,81.39
2022-08-30T01:36:44.702Z,81.55
2022-08-30T01:39:19.950Z,81.75
2022-08-30T01:41:53.135Z,82.03
2022-08-30T01:44:26.004Z,82.25
2022-08-30T01:46:58.959Z,82.70
2022-08-30T01:49:33.354Z,82.70
2022-08-30T01:52:07.308Z,82.68
2022-08-30T01:54:42.024Z,83.07
2022-08-30T01:57:17.919Z,83.15
2022-08-30T01:59:51.018Z,82.79
2022-08-30T02:02:27.048Z,82.74
2022-08-30T02:04:59.633Z,82.77
2022-08-30T02:07:32.646Z,83.22
2022-08-30T02:10:06.142Z,83.62
2022-08-30T02:12:39.466Z,83.97
2022-08-30T02:15:13.165Z,84.15
2022-08-30T02:17:47.760Z,84.28
2022-08-30T02:20:19.948Z,84.74
2022-08-30T02:22:52.203Z,84.73
2022-08-30T02:25:25.937Z,84.54
2022-08-30T02:27:59.187Z,84.51
2022-08-30T02:30:32.087Z,84.21
2022-08-30T02:33:04.809Z,84.38
2022-08-30T02:35:39.462Z,84.71
2022-08-30T02:38:13.175Z,84.93
2022-08-30T02:40:46.169Z,85.46
2022-08-30T02:43:19.004Z,86.02
2022-08-30T02:45:51.920Z,86.82
2022-08-30T02:48:25.805Z,87.58
2022-08-30T02:50:59.280Z,88.09
2022-08-30T02:53:32.107Z,88.70
2022-08-30T02:56:04.766Z,89.05
2022-08-30T02:58:38.702Z,89.50
2022-08-30T03:01:13.903Z,89.82
2022-08-30T03:03:47.275Z,90.27
2022-08-30T03:06:20.019Z,90.71
2022-08-30T03:08:53.751Z,90.96
2022-08-30T03:11:26.276Z,91.18
2022-08-30T03:13:59.392Z,91.70
2022-08-30T03:16:32.649Z,92.00
2022-08-30T03:19:07.755Z,92.32
2022-08-30T03:21:40.772Z,93.20
2022-08-30T03:24:13.814Z,93.71
2022-08-30T03:26:47.026Z,93.97
2022-08-30T03:29:19.784Z,94.60
2022-08-30T03:31:53.761Z,95.10
2022-08-30T03:34:27.287Z,95.71
2022-08-30T03:37:02.050Z,95.80
2022-08-30T03:39:34.816Z,95.73
2022-08-30T03:42:07.931Z,95.77
2022-08-30T03:44:41.258Z,95.26
2022-08-30T03:47:14.818Z,95.32
2022-08-30T03:49:47.267Z,95.73
2022-08-30T03:52:19.762Z,96.28
2022-08-30T03:54:52.308Z,96.96
2022-08-30T03:57:25.864Z,96.40
2022-08-30T03:59:59.223Z,96.58
2022-08-30T04:02:32.391Z,96.78
2022-08-30T04:05:05.487Z,96.20
2022-08-30T04:07:38.303Z,96.04
2022-08-30T04:10:11.188Z,96.63
2022-08-30T04:12:49.359Z,97.27
2022-08-30T04:15:28.321Z,98.36
2022-08-30T04:18:02.735Z,99.51
2022-08-30T04:20:35.427Z,99.22
2022-08-30T04:23:13.733Z,99.43
2022-08-30T04:25:46.503Z,99.61
2022-08-30T04:28:20.044Z,99.57
2022-08-30T04:30:52.597Z,99.52
2022-08-30T04:33:25.356Z,99.66
2022-08-30T04:36:00.797Z,99.55
2022-08-30T04:38:34.218Z,99.70
2022-08-30T04:41:37.959Z,99.58
2022-08-30T04:44:19.075Z,99.03
2022-08-30T04:46:44.945Z,97.35
2022-08-30T04:49:17.330Z,96.09
2022-08-30T04:51:50.000Z,95.20
2022-08-30T04:54:22.546Z,94.57
2022-08-30T04:56:55.068Z,93.12
2022-08-30T04:59:28.522Z,93.24
2022-08-30T05:02:01.597Z,92.39
2022-08-30T05:04:34.326Z,91.59
2022-08-30T05:08:54.223Z,90.49
2022-08-30T05:11:28.620Z,90.42
2022-08-30T05:14:01.647Z,90.51
2022-08-30T05:16:35.400Z,89.73
2022-08-30T05:19:08.226Z,89.41
2022-08-30T05:21:41.290Z,89.53
2022-08-30T05:24:14.063Z,87.84
2022-08-30T05:29:21.442Z,86.69
2022-08-30T05:31:53.914Z,86.45
2022-08-30T05:34:27.779Z,84.70
2022-08-30T05:37:00.209Z,83.87
2022-08-30T05:39:51.506Z,82.80
2022-08-30T05:42:09.722Z,82.17
2022-08-30T05:44:44.347Z,80.43
2022-08-30T05:47:17.045Z,78.48
2022-08-30T05:49:50.008Z,77.05
2022-08-30T05:52:22.397Z,74.50
2022-08-30T05:55:03.543Z,73.56
2022-08-30T05:57:41.355Z,72.47
2022-08-30T06:00:18.159Z,71.04
2022-08-30T06:02:54.831Z,69.77
2022-08-30T06:05:27.607Z,69.03
2022-08-30T06:08:00.092Z,67.48
2022-08-30T06:10:33.302Z,66.69
2022-08-30T06:13:06.616Z,66.10
2022-08-30T06:15:39.802Z,66.09
2022-08-30T06:18:13.455Z,64.84
2022-08-30T06:20:51.399Z,63.44
2022-08-30T06:23:24.859Z,61.80
2022-08-30T06:25:58.632Z,60.31
2022-08-30T06:28:32.464Z,59.67
2022-08-30T06:31:10.637Z,58.84
2022-08-30T06:33:44.395Z,58.08
2022-08-30T06:36:24.794Z,57.96
2022-08-30T06:38:58.395Z,57.06
2022-08-30T06:41:32.985Z,55.14
2022-08-30T06:44:06.047Z,55.02
2022-08-30T06:46:39.581Z,54.71
2022-08-30T06:49:12.836Z,54.25
2022-08-30T06:51:45.871Z,54.81
2022-08-30T06:54:18.241Z,53.14
2022-08-30T06:56:59.104Z,51.65
2022-08-30T06:59:26.212Z,50.13
2022-08-30T07:01:59.527Z,50.15
2022-08-30T07:04:33.454Z,51.21
2022-08-30T07:07:06.227Z,50.20
2022-08-30T07:09:40.896Z,49.17
2022-08-30T07:12:15.314Z,49.00
2022-08-30T07:14:48.066Z,47.99
2022-08-30T07:17:25.529Z,48.66
2022-08-30T07:19:57.898Z,48.48
2022-08-30T07:22:30.340Z,45.52
2022-08-30T07:25:02.929Z,44.92
2022-08-30T07:27:37.725Z,44.78
2022-08-30T07:30:11.681Z,44.35
2022-08-30T07:32:44.525Z,43.90
2022-08-30T07:35:17.510Z,45.13
2022-08-30T07:37:50.633Z,43.54
2022-08-30T07:40:23.609Z,43.93
2022-08-30T07:42:57.269Z,43.27
2022-08-30T07:45:31.660Z,41.09
2022-08-30T07:48:04.579Z,41.12
2022-08-30T07:50:37.378Z,40.98
2022-08-30T07:53:11.266Z,40.17
2022-08-30T07:55:44.615Z,38.99
2022-08-30T07:58:18.106Z,39.04
2022-08-30T08:00:51.556Z,38.16
2022-08-30T08:03:25.146Z,36.90
2022-08-30T08:05:57.473Z,37.30
2022-08-30T08:08:30.383Z,37.49
2022-08-30T08:11:20.388Z,37.03
2022-08-30T08:13:54.592Z,36.86
2022-08-30T08:16:29.185Z,37.40
2022-08-30T08:19:01.587Z,37.01
2022-08-30T08:21:35.187Z,36.36
2022-08-30T08:24:07.819Z,35.34
2022-08-30T08:26:41.913Z,34.90
2022-08-30T08:29:15.768Z,35.94
2022-08-30T08:31:48.249Z,36.29
2022-08-30T08:34:22.982Z,36.47
2022-08-30T08:36:54.704Z,34.50
2022-08-30T08:39:27.805Z,33.25
2022-08-30T08:42:08.141Z,32.86
2022-08-30T08:44:57.902Z,33.00
2022-08-30T08:47:42.156Z,33.65
2022-08-30T08:50:22.622Z,33.66
2022-08-30T08:53:45.474Z,33.09
2022-08-30T08:55:56.871Z,32.62
2022-08-30T08:58:48.293Z,32.94
2022-08-30T09:01:24.109Z,32.42
2022-08-30T09:03:58.419Z,32.95
2022-08-30T09:06:59.805Z,32.85
2022-08-30T09:09:36.369Z,32.73
2022-08-30T09:12:11.081Z,31.50
2022-08-30T09:14:54.433Z,31.49
2022-08-30T09:17:27.115Z,31.98
2022-08-30T09:20:02.692Z,31.01
2022-08-30T09:22:39.283Z,31.43
2022-08-30T09:25:27.025Z,31.07
2022-08-30T09:28:14.751Z,30.95
2022-08-30T09:31:12.535Z,30.86
2022-08-30T09:34:07.001Z,30.77
2022-08-30T09:36:51.561Z,29.91
2022-08-30T09:39:35.650Z,30.25
2022-08-30T09:42:25.991Z,30.59
2022-08-30T09:45:00.529Z,30.68
2022-08-30T09:47:35.286Z,30.25
2022-08-30T09:50:18.081Z,30.20
2022-08-30T09:53:09.975Z,30.62
2022-08-30T09:56:00.860Z,30.45
2022-08-30T09:58:50.153Z,30.74
2022-08-30T10:01:27.198Z,30.38
2022-08-30T10:04:18.577Z,30.39
2022-08-30T10:07:01.405Z,30.31
2022-08-30T10:09:51.051Z,30.24
2022-08-30T10:12:37.518Z,30.52
2022-08-30T10:15:38.321Z,30.58
2022-08-30T10:18:26.393Z,29.73
2022-08-30T10:21:19.046Z,30.14
2022-08-30T10:23:59.989Z,30.10
2022-08-30T10:26:46.224Z,30.34
2022-08-30T10:29:31.416Z,29.81
2022-08-30T10:32:18.110Z,28.65
2022-08-30T10:35:05.028Z,28.29
2022-08-30T10:37:50.411Z,27.65
2022-08-30T10:40:55.410Z,27.56
2022-08-30T10:43:51.264Z,28.00
2022-08-30T10:46:55.576Z,27.97
2022-08-30T10:49:30.139Z,28.32
2022-08-30T10:52:38.405Z,28.61
2022-08-30T10:55:24.393Z,29.14
2022-08-30T10:58:03.189Z,28.62
2022-08-30T11:00:44.018Z,28.33
2022-08-30T11:03:33.130Z,27.46
2022-08-30T11:06:30.110Z,27.20
2022-08-30T11:09:35.912Z,27.57
2022-08-30T11:12:19.919Z,28.33
2022-08-30T11:14:54.186Z,28.60
2022-08-30T11:17:35.237Z,28.67
2022-08-30T11:20:25.297Z,28.23
2022-08-30T11:23:30.554Z,28.32
2022-08-30T11:26:13.983Z,27.65
2022-08-30T11:28:52.988Z,28.01
2022-08-30T11:31:38.388Z,27.26
2022-08-30T11:34:12.908Z,27.22
2022-08-30T11:36:56.259Z,26.73
2022-08-30T11:39:50.246Z,27.41
2022-08-30T11:42:32.747Z,27.41
2022-08-30T11:45:29.583Z,27.90
2022-08-30T11:48:10.155Z,28.30
2022-08-30T11:50:56.443Z,28.37
2022-08-30T11:54:00.519Z,27.73
2022-08-30T11:56:56.750Z,27.72
2022-08-30T11:59:49.292Z,26.78
2022-08-30T12:02:52.263Z,27.03
2022-08-30T12:05:51.480Z,26.66
2022-08-30T12:08:38.813Z,27.55
2022-08-30T12:11:19.791Z,27.09
2022-08-30T12:13:53.963Z,27.04
2022-08-30T12:16:45.898Z,27.17
2022-08-30T12:19:21.286Z,27.54
2022-08-30T12:21:59.393Z,27.62
2022-08-30T12:24:40.401Z,27.62
2022-08-30T12:27:34.172Z,27.85
2022-08-30T12:30:10.046Z,27.48
2022-08-30T12:32:48.750Z,27.84
2022-08-30T12:35:28.345Z,27.51
2022-08-30T12:38:07.649Z,27.78
2022-08-30T12:40:41.720Z,28.73
2022-08-30T12:43:25.011Z,29.15
2022-08-30T12:46:07.502Z,29.77
2022-08-30T12:48:39.847Z,31.15
2022-08-30T12:51:15.084Z,31.41
2022-08-30T12:53:51.389Z,31.32
2022-08-30T12:56:40.628Z,32.28
2022-08-30T12:58:58.651Z,32.18
2022-08-30T13:01:37.953Z,31.94
2022-08-30T13:04:22.998Z,32.51
2022-08-30T13:07:02.325Z,33.03
2022-08-30T13:09:44.163Z,33.59
2022-08-30T13:12:27.591Z,33.83
2022-08-30T13:15:21.919Z,33.58
2022-08-30T13:18:26.991Z,33.26
2022-08-30T13:21:28.330Z,32.92
2022-08-30T13:24:05.695Z,33.16
2022-08-30T13:26:41.113Z,32.85
2022-08-30T13:29:19.645Z,33.09
2022-08-30T13:31:52.143Z,32.87
2022-08-30T13:34:24.947Z,32.90
2022-08-30T13:37:01.179Z,33.19
2022-08-30T13:39:34.092Z,33.55
2022-08-30T13:44:43.646Z,33.67
2022-08-30T13:47:33.070Z,34.04
2022-08-30T13:49:52.823Z,34.06
2022-08-30T13:52:26.008Z,34.49
2022-08-30T13:54:58.676Z,34.74
2022-08-30T14:00:28.259Z,34.19
2022-08-30T14:03:01.973Z,33.95
2022-08-30T14:05:49.319Z,33.23
2022-08-30T14:10:51.555Z,33.58
2022-08-30T14:13:24.035Z,32.72
2022-08-30T14:18:32.259Z,33.05
2022-08-30T14:21:04.798Z,32.98
2022-08-30T14:23:38.087Z,33.31
2022-08-30T14:26:21.979Z,33.43
2022-08-30T14:28:54.949Z,33.08
2022-08-30T14:31:27.656Z,32.54
2022-08-30T14:34:04.220Z,32.84
2022-08-30T14:36:39.454Z,32.93
2022-08-30T14:39:16.010Z,33.50
2022-08-30T14:41:52.051Z,33.21
2022-08-30T14:44:25.138Z,33.30
2022-08-30T14:46:58.231Z,33.48
2022-08-30T14:49:32.677Z,33.64
2022-08-30T14:52:06.726Z,33.85
2022-08-30T14:54:40.432Z,34.07
2022-08-30T14:57:14.036Z,33.44
2022-08-30T14:59:48.613Z,33.75
2022-08-30T15:02:26.919Z,34.05
2022-08-30T15:04:56.824Z,34.05
2022-08-30T15:07:29.893Z,34.02
2022-08-30T15:10:02.474Z,33.87
2022-08-30T15:12:35.718Z,33.99
2022-08-30T15:15:28.998Z,34.53
2022-08-30T15:18:01.794Z,34.46
2022-08-30T15:20:34.853Z,34.65
2022-08-30T15:23:08.476Z,34.79
2022-08-30T15:25:42.423Z,34.95
2022-08-30T15:28:15.928Z,34.58
2022-08-30T15:30:50.363Z,34.60
2022-08-30T15:33:24.297Z,34.75
2022-08-30T15:35:57.095Z,35.08
2022-08-30T15:38:31.252Z,35.50
2022-08-30T15:41:07.974Z,35.86
2022-08-30T15:43:42.284Z,36.01
2022-08-30T15:46:30.917Z,36.05
2022-08-30T15:49:21.752Z,36.16
2022-08-30T15:51:54.730Z,36.31
2022-08-30T15:54:27.760Z,36.52
2022-08-30T15:57:01.440Z,36.76
2022-08-30T15:59:35.443Z,37.15
2022-08-30T16:02:08.876Z,37.19
2022-08-30T16:04:42.020Z,37.36
2022-08-30T16:07:15.189Z,37.34
2022-08-30T16:09:49.392Z,37.35
2022-08-30T16:12:23.910Z,37.31
2022-08-30T16:14:56.303Z,37.22
2022-08-30T16:17:28.752Z,37.52
2022-08-30T16:20:04.118Z,37.24
2022-08-30T16:22:37.519Z,37.18
2022-08-30T16:25:11.457Z,37.53
2022-08-30T16:27:45.375Z,37.52
2022-08-30T16:30:19.620Z,37.58
2022-08-30T16:32:52.059Z,37.74
2022-08-30T16:35:24.645Z,37.88
2022-08-30T16:37:59.415Z,37.96
2022-08-30T16:40:33.301Z,38.17
2022-08-30T16:43:09.087Z,38.37
2022-08-30T16:45:43.030Z,38.10
2022-08-30T16:48:16.699Z,38.47
2022-08-30T16:50:49.729Z,38.61
2022-08-30T16:53:23.359Z,38.30
2022-08-30T16:55:57.344Z,38.54
2022-08-30T16:58:30.104Z,38.65
2022-08-30T17:01:02.925Z,38.89
2022-08-30T17:03:36.406Z,39.23
2022-08-30T17:06:09.259Z,39.00
2022-08-30T17:08:44.010Z,39.45
2022-08-30T17:11:17.325Z,39.61
2022-08-30T17:13:51.112Z,39.74
2022-08-30T17:16:28.061Z,39.56
2022-08-30T17:19:00.790Z,39.85
2022-08-30T17:21:34.697Z,39.98
2022-08-30T17:24:09.762Z,39.67
2022-08-30T17:26:42.819Z,39.88
2022-08-30T17:29:15.916Z,40.12
2022-08-30T17:31:50.984Z,40.24
2022-08-30T17:34:24.358Z,40.34
2022-08-30T17:37:00.207Z,41.01
2022-08-30T17:39:32.990Z,41.25
2022-08-30T17:42:05.848Z,40.99
2022-08-30T17:44:42.392Z,41.50
2022-08-30T17:47:12.269Z,41.96
2022-08-30T17:49:44.914Z,41.92
2022-08-30T17:52:18.649Z,41.73
2022-08-30T17:54:52.042Z,42.04
2022-08-30T17:57:24.797Z,42.06
2022-08-30T17:59:58.050Z,42.50
2022-08-30T18:02:30.640Z,42.29
2022-08-30T18:05:04.924Z,41.95
2022-08-30T18:07:38.353Z,42.07
2022-08-30T18:10:13.437Z,43.53
2022-08-30T18:12:49.305Z,43.53
2022-08-30T18:15:21.390Z,43.38
2022-08-30T18:17:53.661Z,43.28
2022-08-30T18:20:27.230Z,43.62
2022-08-30T18:23:02.782Z,43.17
2022-08-30T18:25:36.007Z,43.17
2022-08-30T18:28:12.507Z,42.78
2022-08-30T18:30:47.398Z,43.17
2022-08-30T18:33:21.263Z,43.39
2022-08-30T18:35:53.860Z,43.36
2022-08-30T18:38:26.431Z,43.37
2022-08-30T18:41:02.529Z,43.60
2022-08-30T18:43:35.684Z,43.18
2022-08-30T18:46:10.563Z,43.48
2022-08-30T18:48:45.167Z,43.37
2022-08-30T18:51:21.379Z,43.49
2022-08-30T18:53:56.344Z,43.55
2022-08-30T18:56:28.739Z,43.45
2022-08-30T18:59:02.826Z,43.66
2022-08-30T19:01:37.698Z,43.83
2022-08-30T19:04:22.337Z,43.97
2022-08-30T19:06:47.551Z,43.83
2022-08-30T19:09:21.008Z,44.15
2022-08-30T19:11:53.696Z,44.02
2022-08-30T19:14:28.066Z,44.10
2022-08-30T19:17:06.488Z,44.15
2022-08-30T19:19:48.372Z,44.17
2022-08-30T19:22:13.985Z,44.18
2022-08-30T19:24:51.327Z,44.62
2022-08-30T19:27:37.551Z,44.95
2022-08-30T19:29:58.322Z,44.93
2022-08-30T19:32:31.465Z,44.90
2022-08-30T19:35:04.151Z,45.12
2022-08-30T19:37:37.393Z,45.45
2022-08-30T19:40:14.415Z,45.33
2022-08-30T19:42:48.101Z,45.30
2022-08-30T19:45:23.826Z,45.45
2022-08-30T19:47:57.910Z,45.57
2022-08-30T19:50:30.415Z,45.43
2022-08-30T19:53:03.729Z,45.49
2022-08-30T19:55:37.354Z,46.07
2022-08-30T19:58:10.517Z,46.18
2022-08-30T20:00:54.566Z,46.03
2022-08-30T20:03:20.309Z,46.24
2022-08-30T20:05:54.097Z,46.21
2022-08-30T20:08:26.836Z,46.31
2022-08-30T20:11:01.560Z,46.55
2022-08-30T20:13:34.421Z,46.47
2022-08-30T20:16:07.675Z,46.46
2022-08-30T20:18:42.672Z,46.49
2022-08-30T20:21:16.705Z,46.86
2022-08-30T20:23:50.207Z,46.85
2022-08-30T20:26:27.414Z,47.09
2022-08-30T20:28:59.822Z,47.20
2022-08-30T20:31:34.239Z,47.09
2022-08-30T20:34:06.942Z,47.38
2022-08-30T20:36:40.601Z,47.34
2022-08-30T20:39:17.415Z,47.84
2022-08-30T20:41:50.276Z,47.83
2022-08-30T20:44:24.055Z,48.08
2022-08-30T20:46:58.092Z,48.09
2022-08-30T20:49:31.000Z,48.18
2022-08-30T20:52:04.980Z,48.60
2022-08-30T20:54:38.490Z,48.98
2022-08-30T20:57:11.033Z,48.51
2022-08-30T20:59:45.486Z,48.87
2022-08-30T21:02:19.062Z,48.98
2022-08-30T21:04:51.626Z,48.98
2022-08-30T21:07:24.302Z,48.70
2022-08-30T21:09:56.938Z,48.53
2022-08-30T21:12:30.855Z,48.56
2022-08-30T21:15:26.976Z,48.40
2022-08-30T21:17:38.723Z,48.50
2022-08-30T21:20:13.597Z,48.86
2022-08-30T21:22:46.314Z,49.21
2022-08-30T21:25:19.964Z,49.42
2022-08-30T21:27:53.859Z,49.67
2022-08-30T21:30:26.818Z,50.11
2022-08-30T21:33:00.431Z,50.19
2022-08-30T21:35:52.398Z,50.34
2022-08-30T21:38:25.177Z,50.29
2022-08-30T21:40:57.569Z,50.58
2022-08-30T21:43:30.046Z,51.13
2022-08-30T21:46:09.471Z,51.07
2022-08-30T21:48:43.215Z,51.36
2022-08-30T21:51:15.920Z,51.50
2022-08-30T21:53:49.468Z,51.26
2022-08-30T21:56:23.590Z,51.49
2022-08-30T21:58:57.208Z,51.23
2022-08-30T22:01:31.001Z,51.30
2022-08-30T22:04:04.850Z,51.03
2022-08-30T22:06:38.502Z,51.07
2022-08-30T22:09:14.097Z,51.70
2022-08-30T22:11:47.599Z,51.84
2022-08-30T22:14:23.551Z,51.85
2022-08-30T22:16:56.785Z,51.80
2022-08-30T22:19:33.808Z,51.89
2022-08-30T22:22:04.015Z,52.01
2022-08-30T22:24:36.947Z,51.93
2022-08-30T22:27:10.127Z,52.04
2022-08-30T22:29:42.690Z,52.10
2022-08-30T22:32:15.126Z,51.82
2022-08-30T22:34:48.063Z,51.90
2022-08-30T22:37:21.705Z,51.88
2022-08-30T22:39:54.978Z,52.26
2022-08-30T22:42:28.155Z,52.72
2022-08-30T22:45:00.802Z,53.16
2022-08-30T22:47:33.544Z,53.29
2022-08-30T22:50:06.821Z,53.11
2022-08-30T22:55:22.373Z,53.54
2022-08-30T22:57:55.507Z,53.74
2022-08-30T23:00:28.213Z,53.68
2022-08-30T23:03:00.931Z,53.75
2022-08-30T23:05:33.638Z,53.69
2022-08-30T23:08:08.321Z,53.96
2022-08-30T23:10:42.410Z,54.35
2022-08-30T23:13:15.352Z,54.19
2022-08-30T23:15:48.062Z,54.30
2022-08-30T23:18:20.637Z,54.01
2022-08-30T23:20:53.526Z,54.38
2022-08-30T23:23:44.121Z,54.96
2022-08-30T23:26:37.386Z,54.87
2022-08-30T23:29:26.231Z,55.09
2022-08-30T23:32:17.183Z,55.07
2022-08-30T23:35:07.560Z,54.92
2022-08-30T23:37:58.725Z,55.01
2022-08-30T23:40:49.385Z,55.29
2022-08-30T23:43:39.593Z,55.59
2022-08-30T23:46:30.652Z,55.82
2022-08-30T23:49:21.421Z,55.69
2022-08-30T23:52:12.400Z,55.80
2022-08-30T23:55:02.507Z,55.80
2022-08-30T23:57:53.257Z,55.85
